Plummers Landing, Kentucky
Current Conditions -  °F | °C
As of 10:30 PM on Friday 28 Nov 2014 (Local Time) from KSYM Reporting Station
Few Clouds Few Clouds  
Wind Chill: 27°   Ceiling: Unl
Heat Index: 32°   Visibility: 10mi
Dew Point: 18°   Wind: 5mph
Humidity: 55%   Direction: NA
Pressure: 30.13"   Gusts: NA
Location:  38.32°N, 83.56°W
Report Text: KSYM 290330Z AUTO VRB04KT 10SM FEW055 00/M08 A3013 RMK AO2
Loading
Personal Weather Stations






























Interactive Weather Map New forecast layout! Learn more

10-Day Weather Forecast

Advertisements
Track Severe Weather on mobile